sensor_id;sensor_type;location;lat;lon;timestamp;P1;durP1;ratioP1;P2;durP2;ratioP2
13250;SDS011;6692;50.710;7.180;2022-07-22T00:00:57;353.83;;;340.43;;
13250;SDS011;6692;50.710;7.180;2022-07-22T00:02:57;376.47;;;362.13;;
13250;SDS011;6692;50.710;7.180;2022-07-22T00:04:58;329.30;;;316.77;;
13250;SDS011;6692;50.710;7.180;2022-07-22T00:07:00;358.13;;;344.57;;
13250;SDS011;6692;50.710;7.180;2022-07-22T00:09:00;348.57;;;335.37;;
13250;SDS011;6692;50.710;7.180;2022-07-22T00:11:01;355.27;;;341.60;;
13250;SDS011;6692;50.710;7.180;2022-07-22T00:13:01;369.13;;;354.97;;
13250;SDS011;6692;50.710;7.180;2022-07-22T00:15:03;359.53;;;346.13;;
13250;SDS011;6692;50.710;7.180;2022-07-22T00:17:03;372.23;;;357.83;;
13250;SDS011;6692;50.710;7.180;2022-07-22T00:19:05;375.03;;;360.90;;
13250;SDS011;6692;50.710;7.180;2022-07-22T00:21:06;375.93;;;361.13;;
13250;SDS011;6692;50.710;7.180;2022-07-22T00:23:06;356.83;;;343.40;;
13250;SDS011;6692;50.710;7.180;2022-07-22T00:25:07;373.37;;;359.20;;
13250;SDS011;6692;50.710;7.180;2022-07-22T00:27:09;378.80;;;363.83;;
13250;SDS011;6692;50.710;7.180;2022-07-22T00:29:09;378.90;;;364.17;;
13250;SDS011;6692;50.710;7.180;2022-07-22T00:31:10;381.47;;;366.57;;
13250;SDS011;6692;50.710;7.180;2022-07-22T00:33:11;402.27;;;386.23;;
13250;SDS011;6692;50.710;7.180;2022-07-22T00:35:11;371.83;;;357.57;;
13250;SDS011;6692;50.710;7.180;2022-07-22T00:37:13;399.63;;;384.13;;
13250;SDS011;6692;50.710;7.180;2022-07-22T00:39:14;397.23;;;381.63;;
13250;SDS011;6692;50.710;7.180;2022-07-22T00:41:15;427.17;;;410.43;;
13250;SDS011;6692;50.710;7.180;2022-07-22T00:43:15;377.47;;;362.97;;
13250;SDS011;6692;50.710;7.180;2022-07-22T00:45:16;387.63;;;372.50;;
13250;SDS011;6692;50.710;7.180;2022-07-22T00:47:17;403.77;;;387.77;;
13250;SDS011;6692;50.710;7.180;2022-07-22T00:49:17;375.40;;;361.20;;
13250;SDS011;6692;50.710;7.180;2022-07-22T00:51:19;403.27;;;387.53;;
13250;SDS011;6692;50.710;7.180;2022-07-22T00:53:20;358.53;;;344.97;;
13250;SDS011;6692;50.710;7.180;2022-07-22T00:55:20;356.90;;;343.03;;
13250;SDS011;6692;50.710;7.180;2022-07-22T00:57:21;363.07;;;349.23;;
13250;SDS011;6692;50.710;7.180;2022-07-22T00:59:22;342.43;;;329.23;;
13250;SDS011;6692;50.710;7.180;2022-07-22T01:01:23;351.93;;;338.30;;
13250;SDS011;6692;50.710;7.180;2022-07-22T01:03:24;360.97;;;347.27;;
13250;SDS011;6692;50.710;7.180;2022-07-22T01:05:24;350.07;;;336.83;;
13250;SDS011;6692;50.710;7.180;2022-07-22T01:07:25;347.73;;;334.77;;
13250;SDS011;6692;50.710;7.180;2022-07-22T01:09:26;332.67;;;319.97;;
13250;SDS011;6692;50.710;7.180;2022-07-22T01:11:26;323.77;;;311.37;;
13250;SDS011;6692;50.710;7.180;2022-07-22T01:13:27;321.67;;;309.30;;
13250;SDS011;6692;50.710;7.180;2022-07-22T01:15:28;328.10;;;315.80;;
13250;SDS011;6692;50.710;7.180;2022-07-22T01:17:28;336.97;;;324.03;;
13250;SDS011;6692;50.710;7.180;2022-07-22T01:19:29;306.00;;;294.37;;
13250;SDS011;6692;50.710;7.180;2022-07-22T01:21:31;312.33;;;300.23;;
13250;SDS011;6692;50.710;7.180;2022-07-22T01:23:31;316.53;;;304.43;;
13250;SDS011;6692;50.710;7.180;2022-07-22T01:25:33;306.40;;;295.10;;
13250;SDS011;6692;50.710;7.180;2022-07-22T01:27:33;310.53;;;298.73;;
13250;SDS011;6692;50.710;7.180;2022-07-22T01:29:34;319.13;;;307.13;;
13250;SDS011;6692;50.710;7.180;2022-07-22T01:31:36;329.90;;;317.63;;
13250;SDS011;6692;50.710;7.180;2022-07-22T01:33:37;310.97;;;299.13;;
13250;SDS011;6692;50.710;7.180;2022-07-22T01:35:37;322.07;;;310.13;;
13250;SDS011;6692;50.710;7.180;2022-07-22T01:37:38;333.97;;;321.20;;
13250;SDS011;6692;50.710;7.180;2022-07-22T01:39:39;289.23;;;278.57;;
13250;SDS011;6692;50.710;7.180;2022-07-22T01:41:39;320.30;;;308.43;;
13250;SDS011;6692;50.710;7.180;2022-07-22T01:43:41;299.03;;;287.27;;
13250;SDS011;6692;50.710;7.180;2022-07-22T01:45:41;293.10;;;281.70;;
13250;SDS011;6692;50.710;7.180;2022-07-22T01:47:42;281.67;;;271.03;;
13250;SDS011;6692;50.710;7.180;2022-07-22T01:49:43;254.67;;;244.80;;
13250;SDS011;6692;50.710;7.180;2022-07-22T01:51:44;254.77;;;245.10;;
13250;SDS011;6692;50.710;7.180;2022-07-22T01:53:44;253.37;;;243.70;;
13250;SDS011;6692;50.710;7.180;2022-07-22T01:55:45;243.80;;;234.57;;
13250;SDS011;6692;50.710;7.180;2022-07-22T01:57:46;254.60;;;244.80;;
13250;SDS011;6692;50.710;7.180;2022-07-22T01:59:46;251.73;;;242.20;;
13250;SDS011;6692;50.710;7.180;2022-07-22T02:01:47;271.77;;;261.50;;
13250;SDS011;6692;50.710;7.180;2022-07-22T02:03:48;279.57;;;268.87;;
13250;SDS011;6692;50.710;7.180;2022-07-22T02:05:49;280.53;;;269.80;;
13250;SDS011;6692;50.710;7.180;2022-07-22T02:07:50;277.73;;;267.13;;
13250;SDS011;6692;50.710;7.180;2022-07-22T02:09:52;284.03;;;273.23;;
13250;SDS011;6692;50.710;7.180;2022-07-22T02:11:53;301.30;;;289.87;;
13250;SDS011;6692;50.710;7.180;2022-07-22T02:13:53;322.67;;;310.77;;
13250;SDS011;6692;50.710;7.180;2022-07-22T02:15:54;353.23;;;339.93;;
13250;SDS011;6692;50.710;7.180;2022-07-22T02:17:56;370.00;;;355.87;;
13250;SDS011;6692;50.710;7.180;2022-07-22T02:19:55;387.13;;;372.33;;
13250;SDS011;6692;50.710;7.180;2022-07-22T02:21:56;401.93;;;386.40;;
13250;SDS011;6692;50.710;7.180;2022-07-22T02:23:57;333.70;;;321.03;;
13250;SDS011;6692;50.710;7.180;2022-07-22T02:25:57;344.57;;;331.27;;
13250;SDS011;6692;50.710;7.180;2022-07-22T02:27:58;369.97;;;355.80;;
13250;SDS011;6692;50.710;7.180;2022-07-22T02:29:58;414.87;;;398.67;;
13250;SDS011;6692;50.710;7.180;2022-07-22T02:31:59;430.73;;;413.80;;
13250;SDS011;6692;50.710;7.180;2022-07-22T02:34:00;360.93;;;346.93;;
13250;SDS011;6692;50.710;7.180;2022-07-22T02:36:00;407.43;;;391.43;;
13250;SDS011;6692;50.710;7.180;2022-07-22T02:38:01;419.20;;;402.97;;
13250;SDS011;6692;50.710;7.180;2022-07-22T02:40:04;439.23;;;421.97;;
13250;SDS011;6692;50.710;7.180;2022-07-22T02:42:04;462.13;;;443.30;;
13250;SDS011;6692;50.710;7.180;2022-07-22T02:44:05;473.70;;;454.43;;
13250;SDS011;6692;50.710;7.180;2022-07-22T02:46:06;493.80;;;473.67;;
13250;SDS011;6692;50.710;7.180;2022-07-22T02:48:06;442.10;;;424.20;;
13250;SDS011;6692;50.710;7.180;2022-07-22T02:50:08;429.40;;;412.30;;
13250;SDS011;6692;50.710;7.180;2022-07-22T02:52:09;456.90;;;438.70;;
13250;SDS011;6692;50.710;7.180;2022-07-22T02:54:09;452.67;;;433.97;;
13250;SDS011;6692;50.710;7.180;2022-07-22T02:56:10;377.90;;;363.30;;
13250;SDS011;6692;50.710;7.180;2022-07-22T02:58:11;403.97;;;388.40;;
13250;SDS011;6692;50.710;7.180;2022-07-22T03:00:12;362.43;;;348.37;;
13250;SDS011;6692;50.710;7.180;2022-07-22T03:02:13;345.80;;;332.33;;
13250;SDS011;6692;50.710;7.180;2022-07-22T03:04:15;406.83;;;391.00;;
13250;SDS011;6692;50.710;7.180;2022-07-22T03:06:15;378.63;;;364.00;;
13250;SDS011;6692;50.710;7.180;2022-07-22T03:08:16;386.00;;;370.67;;
13250;SDS011;6692;50.710;7.180;2022-07-22T03:10:17;325.47;;;313.23;;
13250;SDS011;6692;50.710;7.180;2022-07-22T03:12:17;386.83;;;372.10;;
13250;SDS011;6692;50.710;7.180;2022-07-22T03:14:18;345.13;;;332.27;;
13250;SDS011;6692;50.710;7.180;2022-07-22T03:16:19;406.67;;;391.03;;
13250;SDS011;6692;50.710;7.180;2022-07-22T03:18:19;408.87;;;392.77;;
13250;SDS011;6692;50.710;7.180;2022-07-22T03:20:20;430.93;;;413.97;;
13250;SDS011;6692;50.710;7.180;2022-07-22T03:22:21;445.73;;;428.03;;
13250;SDS011;6692;50.710;7.180;2022-07-22T03:24:23;458.30;;;440.33;;
13250;SDS011;6692;50.710;7.180;2022-07-22T03:26:23;323.07;;;310.80;;
13250;SDS011;6692;50.710;7.180;2022-07-22T03:28:24;317.53;;;305.40;;
13250;SDS011;6692;50.710;7.180;2022-07-22T03:30:25;385.53;;;370.87;;
13250;SDS011;6692;50.710;7.180;2022-07-22T03:32:25;412.10;;;396.00;;
13250;SDS011;6692;50.710;7.180;2022-07-22T03:34:26;440.83;;;423.43;;
13250;SDS011;6692;50.710;7.180;2022-07-22T03:36:27;441.00;;;423.80;;
13250;SDS011;6692;50.710;7.180;2022-07-22T03:38:28;461.83;;;443.27;;
13250;SDS011;6692;50.710;7.180;2022-07-22T03:40:28;461.97;;;443.67;;
13250;SDS011;6692;50.710;7.180;2022-07-22T03:42:29;484.43;;;464.63;;
13250;SDS011;6692;50.710;7.180;2022-07-22T03:44:31;483.97;;;464.43;;
13250;SDS011;6692;50.710;7.180;2022-07-22T03:46:31;496.23;;;476.00;;
13250;SDS011;6692;50.710;7.180;2022-07-22T03:48:32;498.30;;;477.70;;
13250;SDS011;6692;50.710;7.180;2022-07-22T03:50:33;510.97;;;489.83;;
13250;SDS011;6692;50.710;7.180;2022-07-22T03:52:33;516.63;;;495.30;;
13250;SDS011;6692;50.710;7.180;2022-07-22T03:54:34;527.83;;;505.90;;
13250;SDS011;6692;50.710;7.180;2022-07-22T03:56:35;527.47;;;505.43;;
13250;SDS011;6692;50.710;7.180;2022-07-22T03:58:35;510.37;;;489.20;;
13250;SDS011;6692;50.710;7.180;2022-07-22T04:00:36;429.97;;;412.60;;
13250;SDS011;6692;50.710;7.180;2022-07-22T04:02:37;378.60;;;363.50;;
13250;SDS011;6692;50.710;7.180;2022-07-22T04:04:37;446.57;;;428.43;;
13250;SDS011;6692;50.710;7.180;2022-07-22T04:06:38;455.00;;;436.60;;
13250;SDS011;6692;50.710;7.180;2022-07-22T04:08:39;477.73;;;458.40;;
13250;SDS011;6692;50.710;7.180;2022-07-22T04:10:40;478.50;;;459.07;;
13250;SDS011;6692;50.710;7.180;2022-07-22T04:12:41;422.57;;;405.67;;
13250;SDS011;6692;50.710;7.180;2022-07-22T04:14:42;422.30;;;405.40;;
13250;SDS011;6692;50.710;7.180;2022-07-22T04:16:43;428.27;;;411.47;;
13250;SDS011;6692;50.710;7.180;2022-07-22T04:18:43;470.33;;;451.30;;
13250;SDS011;6692;50.710;7.180;2022-07-22T04:20:44;438.37;;;420.63;;
13250;SDS011;6692;50.710;7.180;2022-07-22T04:22:44;476.50;;;457.10;;
13250;SDS011;6692;50.710;7.180;2022-07-22T04:24:45;498.97;;;478.30;;
13250;SDS011;6692;50.710;7.180;2022-07-22T04:26:46;418.73;;;402.00;;
13250;SDS011;6692;50.710;7.180;2022-07-22T04:28:47;469.83;;;450.93;;
13250;SDS011;6692;50.710;7.180;2022-07-22T04:30:48;444.27;;;426.47;;
13250;SDS011;6692;50.710;7.180;2022-07-22T04:32:49;396.87;;;381.13;;
13250;SDS011;6692;50.710;7.180;2022-07-22T04:34:50;423.30;;;406.20;;
13250;SDS011;6692;50.710;7.180;2022-07-22T04:36:51;450.03;;;432.13;;
13250;SDS011;6692;50.710;7.180;2022-07-22T04:38:51;479.30;;;459.80;;
13250;SDS011;6692;50.710;7.180;2022-07-22T04:40:52;507.00;;;486.07;;
13250;SDS011;6692;50.710;7.180;2022-07-22T04:42:53;499.80;;;478.97;;
13250;SDS011;6692;50.710;7.180;2022-07-22T04:44:53;513.77;;;492.33;;
13250;SDS011;6692;50.710;7.180;2022-07-22T04:46:54;513.27;;;492.10;;
13250;SDS011;6692;50.710;7.180;2022-07-22T04:48:56;459.50;;;441.23;;
13250;SDS011;6692;50.710;7.180;2022-07-22T04:50:58;327.50;;;314.77;;
13250;SDS011;6692;50.710;7.180;2022-07-22T04:52:58;400.47;;;384.53;;
13250;SDS011;6692;50.710;7.180;2022-07-22T04:54:58;395.97;;;380.50;;
13250;SDS011;6692;50.710;7.180;2022-07-22T04:56:59;390.47;;;375.27;;
13250;SDS011;6692;50.710;7.180;2022-07-22T04:59:00;325.10;;;312.43;;
13250;SDS011;6692;50.710;7.180;2022-07-22T05:01:00;290.33;;;279.40;;
13250;SDS011;6692;50.710;7.180;2022-07-22T05:03:01;290.23;;;279.33;;
13250;SDS011;6692;50.710;7.180;2022-07-22T05:05:02;390.70;;;375.43;;
13250;SDS011;6692;50.710;7.180;2022-07-22T05:07:03;410.97;;;394.93;;
13250;SDS011;6692;50.710;7.180;2022-07-22T05:09:03;367.37;;;353.43;;
13250;SDS011;6692;50.710;7.180;2022-07-22T05:11:04;380.70;;;366.03;;
13250;SDS011;6692;50.710;7.180;2022-07-22T05:13:05;357.00;;;343.60;;
13250;SDS011;6692;50.710;7.180;2022-07-22T05:15:06;419.60;;;403.10;;
13250;SDS011;6692;50.710;7.180;2022-07-22T05:17:09;440.13;;;422.63;;
13250;SDS011;6692;50.710;7.180;2022-07-22T05:19:09;473.43;;;454.53;;
13250;SDS011;6692;50.710;7.180;2022-07-22T05:21:10;444.83;;;426.63;;
13250;SDS011;6692;50.710;7.180;2022-07-22T05:23:11;368.03;;;353.87;;
13250;SDS011;6692;50.710;7.180;2022-07-22T05:25:11;439.40;;;421.93;;
13250;SDS011;6692;50.710;7.180;2022-07-22T05:27:12;467.07;;;448.23;;
13250;SDS011;6692;50.710;7.180;2022-07-22T05:29:12;488.23;;;468.43;;
13250;SDS011;6692;50.710;7.180;2022-07-22T05:31:13;499.93;;;479.33;;
13250;SDS011;6692;50.710;7.180;2022-07-22T05:33:14;515.00;;;493.37;;
13250;SDS011;6692;50.710;7.180;2022-07-22T05:35:14;440.80;;;423.23;;
13250;SDS011;6692;50.710;7.180;2022-07-22T05:37:15;291.43;;;280.57;;
13250;SDS011;6692;50.710;7.180;2022-07-22T05:39:16;409.07;;;393.27;;
13250;SDS011;6692;50.710;7.180;2022-07-22T05:41:16;390.27;;;375.30;;
13250;SDS011;6692;50.710;7.180;2022-07-22T05:43:17;445.97;;;428.30;;
13250;SDS011;6692;50.710;7.180;2022-07-22T05:45:19;427.93;;;410.97;;
13250;SDS011;6692;50.710;7.180;2022-07-22T05:47:19;461.27;;;442.73;;
13250;SDS011;6692;50.710;7.180;2022-07-22T05:49:21;479.47;;;459.97;;
13250;SDS011;6692;50.710;7.180;2022-07-22T05:51:21;508.83;;;488.00;;
13250;SDS011;6692;50.710;7.180;2022-07-22T05:53:23;515.83;;;494.43;;
13250;SDS011;6692;50.710;7.180;2022-07-22T05:55:24;361.30;;;347.27;;
13250;SDS011;6692;50.710;7.180;2022-07-22T05:57:24;432.70;;;415.43;;
13250;SDS011;6692;50.710;7.180;2022-07-22T05:59:25;454.27;;;436.37;;
13250;SDS011;6692;50.710;7.180;2022-07-22T06:01:26;495.53;;;475.23;;
13250;SDS011;6692;50.710;7.180;2022-07-22T06:03:26;516.93;;;495.63;;
13250;SDS011;6692;50.710;7.180;2022-07-22T06:05:27;532.47;;;509.93;;
13250;SDS011;6692;50.710;7.180;2022-07-22T06:07:28;538.97;;;516.07;;
13250;SDS011;6692;50.710;7.180;2022-07-22T06:09:28;544.07;;;521.17;;
13250;SDS011;6692;50.710;7.180;2022-07-22T06:11:30;315.07;;;303.40;;
13250;SDS011;6692;50.710;7.180;2022-07-22T06:13:31;469.57;;;450.67;;
13250;SDS011;6692;50.710;7.180;2022-07-22T06:15:31;511.97;;;490.90;;
13250;SDS011;6692;50.710;7.180;2022-07-22T06:17:32;516.93;;;495.63;;
13250;SDS011;6692;50.710;7.180;2022-07-22T06:19:32;517.93;;;496.47;;
13250;SDS011;6692;50.710;7.180;2022-07-22T06:21:34;520.97;;;499.50;;
13250;SDS011;6692;50.710;7.180;2022-07-22T06:23:35;494.93;;;474.73;;
13250;SDS011;6692;50.710;7.180;2022-07-22T06:25:35;387.73;;;372.80;;
13250;SDS011;6692;50.710;7.180;2022-07-22T06:27:37;322.83;;;310.43;;
13250;SDS011;6692;50.710;7.180;2022-07-22T06:29:37;212.37;;;204.40;;
13250;SDS011;6692;50.710;7.180;2022-07-22T06:31:38;252.23;;;242.90;;
13250;SDS011;6692;50.710;7.180;2022-07-22T06:33:39;211.93;;;203.87;;
13250;SDS011;6692;50.710;7.180;2022-07-22T06:35:40;333.27;;;320.57;;
13250;SDS011;6692;50.710;7.180;2022-07-22T06:37:40;402.80;;;387.43;;
13250;SDS011;6692;50.710;7.180;2022-07-22T06:39:41;420.13;;;404.03;;
13250;SDS011;6692;50.710;7.180;2022-07-22T06:41:41;382.47;;;367.57;;
13250;SDS011;6692;50.710;7.180;2022-07-22T06:43:42;372.97;;;358.67;;
13250;SDS011;6692;50.710;7.180;2022-07-22T06:45:43;284.47;;;273.67;;
13250;SDS011;6692;50.710;7.180;2022-07-22T06:47:43;353.93;;;340.43;;
13250;SDS011;6692;50.710;7.180;2022-07-22T06:49:44;406.80;;;390.83;;
13250;SDS011;6692;50.710;7.180;2022-07-22T06:51:45;267.10;;;257.23;;
13250;SDS011;6692;50.710;7.180;2022-07-22T06:53:45;223.97;;;215.47;;
13250;SDS011;6692;50.710;7.180;2022-07-22T06:55:46;291.07;;;280.10;;
13250;SDS011;6692;50.710;7.180;2022-07-22T06:57:47;279.97;;;269.57;;
13250;SDS011;6692;50.710;7.180;2022-07-22T06:59:48;386.30;;;371.70;;
13250;SDS011;6692;50.710;7.180;2022-07-22T07:01:49;407.97;;;392.17;;
13250;SDS011;6692;50.710;7.180;2022-07-22T07:03:49;157.83;;;150.97;;
13250;SDS011;6692;50.710;7.180;2022-07-22T07:05:50;217.77;;;209.13;;
13250;SDS011;6692;50.710;7.180;2022-07-22T07:07:52;146.63;;;140.30;;
13250;SDS011;6692;50.710;7.180;2022-07-22T07:09:52;267.03;;;256.90;;
13250;SDS011;6692;50.710;7.180;2022-07-22T07:11:53;215.33;;;207.20;;
13250;SDS011;6692;50.710;7.180;2022-07-22T07:13:54;337.30;;;324.50;;
13250;SDS011;6692;50.710;7.180;2022-07-22T07:15:55;231.60;;;222.50;;
13250;SDS011;6692;50.710;7.180;2022-07-22T07:17:56;230.50;;;221.53;;
13250;SDS011;6692;50.710;7.180;2022-07-22T07:19:57;193.77;;;185.77;;
13250;SDS011;6692;50.710;7.180;2022-07-22T07:21:58;257.60;;;247.20;;
13250;SDS011;6692;50.710;7.180;2022-07-22T07:23:59;302.90;;;291.13;;
13250;SDS011;6692;50.710;7.180;2022-07-22T07:25:59;313.13;;;300.60;;
13250;SDS011;6692;50.710;7.180;2022-07-22T07:28:00;272.73;;;261.97;;
13250;SDS011;6692;50.710;7.180;2022-07-22T07:30:03;266.47;;;256.30;;
13250;SDS011;6692;50.710;7.180;2022-07-22T07:32:03;307.40;;;295.73;;
13250;SDS011;6692;50.710;7.180;2022-07-22T07:34:05;381.17;;;366.17;;
13250;SDS011;6692;50.710;7.180;2022-07-22T07:36:05;424.30;;;407.70;;
13250;SDS011;6692;50.710;7.180;2022-07-22T07:38:06;410.60;;;394.47;;
13250;SDS011;6692;50.710;7.180;2022-07-22T07:40:07;404.50;;;388.63;;
13250;SDS011;6692;50.710;7.180;2022-07-22T07:42:08;396.03;;;380.53;;
13250;SDS011;6692;50.710;7.180;2022-07-22T07:44:09;224.67;;;216.23;;
13250;SDS011;6692;50.710;7.180;2022-07-22T07:46:11;314.80;;;303.00;;
13250;SDS011;6692;50.710;7.180;2022-07-22T07:48:12;347.40;;;334.07;;
13250;SDS011;6692;50.710;7.180;2022-07-22T07:50:12;436.03;;;418.70;;
13250;SDS011;6692;50.710;7.180;2022-07-22T07:52:14;262.33;;;252.63;;
13250;SDS011;6692;50.710;7.180;2022-07-22T07:54:14;321.00;;;308.57;;
13250;SDS011;6692;50.710;7.180;2022-07-22T07:56:15;261.30;;;251.53;;
13250;SDS011;6692;50.710;7.180;2022-07-22T07:58:15;294.57;;;283.57;;
13250;SDS011;6692;50.710;7.180;2022-07-22T08:00:21;384.50;;;369.67;;
13250;SDS011;6692;50.710;7.180;2022-07-22T08:02:18;430.47;;;413.67;;
13250;SDS011;6692;50.710;7.180;2022-07-22T08:04:19;290.23;;;279.20;;
13250;SDS011;6692;50.710;7.180;2022-07-22T08:06:19;330.60;;;318.10;;
13250;SDS011;6692;50.710;7.180;2022-07-22T08:08:20;440.57;;;423.10;;
13250;SDS011;6692;50.710;7.180;2022-07-22T08:10:21;289.03;;;278.07;;
13250;SDS011;6692;50.710;7.180;2022-07-22T08:12:22;218.90;;;210.13;;
13250;SDS011;6692;50.710;7.180;2022-07-22T08:14:23;276.47;;;265.93;;
13250;SDS011;6692;50.710;7.180;2022-07-22T08:16:24;215.33;;;206.93;;
13250;SDS011;6692;50.710;7.180;2022-07-22T08:18:25;290.13;;;278.90;;
13250;SDS011;6692;50.710;7.180;2022-07-22T08:20:25;313.00;;;301.17;;
13250;SDS011;6692;50.710;7.180;2022-07-22T08:22:26;384.53;;;369.57;;
13250;SDS011;6692;50.710;7.180;2022-07-22T08:24:27;417.77;;;401.27;;
13250;SDS011;6692;50.710;7.180;2022-07-22T08:26:28;487.23;;;467.07;;
13250;SDS011;6692;50.710;7.180;2022-07-22T08:28:29;504.73;;;483.83;;
13250;SDS011;6692;50.710;7.180;2022-07-22T08:30:29;475.13;;;455.90;;
13250;SDS011;6692;50.710;7.180;2022-07-22T08:32:30;443.33;;;425.70;;
13250;SDS011;6692;50.710;7.180;2022-07-22T08:34:31;388.83;;;373.73;;
13250;SDS011;6692;50.710;7.180;2022-07-22T08:36:32;449.13;;;430.97;;
13250;SDS011;6692;50.710;7.180;2022-07-22T08:38:33;523.23;;;501.07;;
13250;SDS011;6692;50.710;7.180;2022-07-22T08:40:34;353.20;;;339.80;;
13250;SDS011;6692;50.710;7.180;2022-07-22T08:42:36;205.00;;;197.30;;
13250;SDS011;6692;50.710;7.180;2022-07-22T08:44:36;302.60;;;291.07;;
13250;SDS011;6692;50.710;7.180;2022-07-22T08:46:38;215.50;;;207.23;;
13250;SDS011;6692;50.710;7.180;2022-07-22T08:48:39;207.10;;;199.27;;
13250;SDS011;6692;50.710;7.180;2022-07-22T08:50:41;164.73;;;158.10;;
13250;SDS011;6692;50.710;7.180;2022-07-22T08:52:41;318.20;;;306.43;;
13250;SDS011;6692;50.710;7.180;2022-07-22T08:54:42;296.53;;;285.23;;
13250;SDS011;6692;50.710;7.180;2022-07-22T08:56:46;311.90;;;300.10;;
13250;SDS011;6692;50.710;7.180;2022-07-22T08:58:46;322.77;;;310.63;;
13250;SDS011;6692;50.710;7.180;2022-07-22T09:00:49;412.07;;;396.03;;
13250;SDS011;6692;50.710;7.180;2022-07-22T09:02:48;462.13;;;443.47;;
13250;SDS011;6692;50.710;7.180;2022-07-22T09:04:51;522.00;;;500.13;;
13250;SDS011;6692;50.710;7.180;2022-07-22T09:06:52;546.03;;;522.97;;
13250;SDS011;6692;50.710;7.180;2022-07-22T09:08:56;573.50;;;548.93;;
13250;SDS011;6692;50.710;7.180;2022-07-22T09:10:55;578.00;;;552.90;;
13250;SDS011;6692;50.710;7.180;2022-07-22T09:12:57;599.77;;;573.33;;
13250;SDS011;6692;50.710;7.180;2022-07-22T09:14:57;616.00;;;588.43;;
13250;SDS011;6692;50.710;7.180;2022-07-22T09:16:57;619.93;;;591.93;;
13250;SDS011;6692;50.710;7.180;2022-07-22T09:18:58;489.77;;;469.93;;
13250;SDS011;6692;50.710;7.180;2022-07-22T09:21:00;586.27;;;560.47;;
13250;SDS011;6692;50.710;7.180;2022-07-22T09:23:02;213.83;;;205.30;;
13250;SDS011;6692;50.710;7.180;2022-07-22T09:25:16;523.30;;;501.23;;
13250;SDS011;6692;50.710;7.180;2022-07-22T09:27:22;376.43;;;362.07;;
13250;SDS011;6692;50.710;7.180;2022-07-22T09:29:15;512.63;;;491.23;;
13250;SDS011;6692;50.710;7.180;2022-07-22T09:31:23;559.30;;;535.20;;
13250;SDS011;6692;50.710;7.180;2022-07-22T09:33:23;572.90;;;548.17;;
13250;SDS011;6692;50.710;7.180;2022-07-22T09:35:24;607.60;;;580.33;;
13250;SDS011;6692;50.710;7.180;2022-07-22T09:37:26;572.27;;;546.93;;
13250;SDS011;6692;50.710;7.180;2022-07-22T09:39:27;632.40;;;604.07;;
13250;SDS011;6692;50.710;7.180;2022-07-22T09:41:28;635.90;;;607.13;;
13250;SDS011;6692;50.710;7.180;2022-07-22T09:43:29;574.73;;;549.80;;
13250;SDS011;6692;50.710;7.180;2022-07-22T09:45:30;325.93;;;313.17;;
13250;SDS011;6692;50.710;7.180;2022-07-22T09:47:30;354.77;;;341.07;;
13250;SDS011;6692;50.710;7.180;2022-07-22T09:49:32;571.83;;;546.57;;
13250;SDS011;6692;50.710;7.180;2022-07-22T09:51:33;495.33;;;474.53;;
13250;SDS011;6692;50.710;7.180;2022-07-22T09:53:34;386.43;;;371.67;;
13250;SDS011;6692;50.710;7.180;2022-07-22T09:55:35;359.20;;;345.03;;
13250;SDS011;6692;50.710;7.180;2022-07-22T09:57:35;553.70;;;529.83;;
13250;SDS011;6692;50.710;7.180;2022-07-22T09:59:36;596.07;;;569.93;;
13250;SDS011;6692;50.710;7.180;2022-07-22T10:01:37;517.97;;;496.33;;
13250;SDS011;6692;50.710;7.180;2022-07-22T10:03:40;525.33;;;503.07;;
13250;SDS011;6692;50.710;7.180;2022-07-22T10:05:41;542.17;;;518.87;;
13250;SDS011;6692;50.710;7.180;2022-07-22T10:07:42;401.67;;;385.97;;
13250;SDS011;6692;50.710;7.180;2022-07-22T10:09:43;236.90;;;228.03;;
13250;SDS011;6692;50.710;7.180;2022-07-22T10:11:44;231.10;;;222.33;;
13250;SDS011;6692;50.710;7.180;2022-07-22T10:13:44;222.80;;;214.37;;
13250;SDS011;6692;50.710;7.180;2022-07-22T10:15:46;229.57;;;220.93;;
13250;SDS011;6692;50.710;7.180;2022-07-22T10:17:48;203.83;;;196.20;;
13250;SDS011;6692;50.710;7.180;2022-07-22T10:19:50;214.63;;;206.70;;
13250;SDS011;6692;50.710;7.180;2022-07-22T10:21:51;258.40;;;248.67;;
13250;SDS011;6692;50.710;7.180;2022-07-22T10:26:05;215.50;;;207.30;;
13250;SDS011;6692;50.710;7.180;2022-07-22T10:28:07;309.63;;;298.07;;
13250;SDS011;6692;50.710;7.180;2022-07-22T10:30:08;283.13;;;272.57;;
13250;SDS011;6692;50.710;7.180;2022-07-22T10:32:22;195.93;;;188.43;;
13250;SDS011;6692;50.710;7.180;2022-07-22T10:34:23;234.93;;;226.27;;
13250;SDS011;6692;50.710;7.180;2022-07-22T10:38:33;335.93;;;323.30;;
13250;SDS011;6692;50.710;7.180;2022-07-22T10:45:05;424.43;;;407.80;;
13250;SDS011;6692;50.710;7.180;2022-07-22T10:47:06;506.33;;;485.33;;
13250;SDS011;6692;50.710;7.180;2022-07-22T10:49:07;521.50;;;499.87;;
13250;SDS011;6692;50.710;7.180;2022-07-22T10:51:10;559.63;;;535.67;;
13250;SDS011;6692;50.710;7.180;2022-07-22T10:53:13;585.77;;;559.93;;
13250;SDS011;6692;50.710;7.180;2022-07-22T10:55:15;615.80;;;588.37;;
13250;SDS011;6692;50.710;7.180;2022-07-22T10:57:28;555.13;;;531.43;;
13250;SDS011;6692;50.710;7.180;2022-07-22T10:59:16;504.37;;;483.67;;
13250;SDS011;6692;50.710;7.180;2022-07-22T11:01:17;559.47;;;535.23;;
13250;SDS011;6692;50.710;7.180;2022-07-22T11:03:23;204.53;;;196.60;;
13250;SDS011;6692;50.710;7.180;2022-07-22T11:05:25;174.83;;;168.13;;
13250;SDS011;6692;50.710;7.180;2022-07-22T11:07:24;176.13;;;169.37;;
13250;SDS011;6692;50.710;7.180;2022-07-22T11:09:31;151.50;;;145.50;;
13250;SDS011;6692;50.710;7.180;2022-07-22T11:11:41;178.83;;;172.03;;
13250;SDS011;6692;50.710;7.180;2022-07-22T11:13:43;156.30;;;150.00;;
13250;SDS011;6692;50.710;7.180;2022-07-22T11:15:43;347.40;;;334.43;;
13250;SDS011;6692;50.710;7.180;2022-07-22T11:17:44;334.93;;;322.27;;
13250;SDS011;6692;50.710;7.180;2022-07-22T11:19:45;131.93;;;126.57;;
13250;SDS011;6692;50.710;7.180;2022-07-22T11:21:50;201.67;;;194.00;;
13250;SDS011;6692;50.710;7.180;2022-07-22T11:23:52;163.77;;;157.47;;
13250;SDS011;6692;50.710;7.180;2022-07-22T11:25:51;264.20;;;254.57;;
13250;SDS011;6692;50.710;7.180;2022-07-22T11:27:52;401.03;;;385.50;;
13250;SDS011;6692;50.710;7.180;2022-07-22T11:29:54;457.93;;;439.80;;
13250;SDS011;6692;50.710;7.180;2022-07-22T11:31:54;523.47;;;501.60;;
13250;SDS011;6692;50.710;7.180;2022-07-22T11:36:06;562.97;;;538.57;;
13250;SDS011;6692;50.710;7.180;2022-07-22T11:38:06;294.47;;;283.27;;
13250;SDS011;6692;50.710;7.180;2022-07-22T11:40:08;460.17;;;441.80;;
13250;SDS011;6692;50.710;7.180;2022-07-22T11:42:09;523.60;;;501.63;;
13250;SDS011;6692;50.710;7.180;2022-07-22T11:44:09;413.63;;;397.80;;
13250;SDS011;6692;50.710;7.180;2022-07-22T11:46:10;461.50;;;443.00;;
13250;SDS011;6692;50.710;7.180;2022-07-22T11:48:11;557.97;;;534.23;;